Time;durP1;ratioP1;P1;durP2;ratioP2;P2;SDS_P1;SDS_P2;PMS_P1;PMS_P2;Temp;Humidity;BMP_temperature;BMP_pressure;BME280_temperature;BME280_humidity;BME280_pressure;Samples;Min_cycle;Max_cycle;Signal;HPM_P1;HPM_P2
2023/05/02 00:00:50;;;;;;;58.50;27.73;;;;;;;-144.87;100.00;61487.56;4949664;28;20031;-73
2023/05/02 00:03:16;;;;;;;60.58;29.33;;;;;;;-144.87;100.00;61487.56;4951486;28;20035;-72
2023/05/02 00:05:42;;;;;;;61.90;29.85;;;;;;;-144.87;100.00;61487.56;4954503;28;20030;-71
2023/05/02 00:08:11;;;;;;;56.08;28.65;;;;;;;-144.87;100.00;61487.56;4951478;28;20114;-74
2023/05/02 00:10:38;;;;;;;52.55;27.83;;;;;;;-144.87;100.00;61487.56;4948051;28;20043;-73
2023/05/02 00:13:04;;;;;;;55.78;29.00;;;;;;;-144.87;100.00;61487.56;4965846;28;20133;-74
2023/05/02 00:15:30;;;;;;;55.70;29.30;;;;;;;-144.87;100.00;61487.56;4970057;28;20101;-73
2023/05/02 00:17:56;;;;;;;51.38;27.42;;;;;;;-144.87;100.00;61487.56;4963473;28;20118;-74
2023/05/02 00:20:23;;;;;;;55.70;27.92;;;;;;;-144.87;100.00;61487.56;4969738;28;20023;-73
2023/05/02 00:22:49;;;;;;;54.33;26.80;;;;;;;-144.87;100.00;61487.56;4963133;28;20515;-70
2023/05/02 00:25:16;;;;;;;43.00;24.88;;;;;;;-144.87;100.00;61487.56;4948077;28;20038;-73
2023/05/02 00:27:45;;;;;;;39.92;23.38;;;;;;;-144.87;100.00;61487.56;4965677;28;20070;-72
2023/05/02 00:30:12;;;;;;;29.15;15.38;;;;;;;-144.87;100.00;61487.56;4960102;28;20058;-73
2023/05/02 00:32:39;;;;;;;30.23;15.75;;;;;;;-144.87;100.00;61487.56;4930279;28;20051;-74
2023/05/02 00:35:06;;;;;;;31.00;15.73;;;;;;;-144.87;100.00;61487.56;4970855;28;20042;-73
2023/05/02 00:37:32;;;;;;;28.85;14.77;;;;;;;-144.87;100.00;61487.56;4968584;28;20046;-73
2023/05/02 00:39:58;;;;;;;36.03;15.05;;;;;;;-144.87;100.00;61487.56;4949264;28;20038;-73
2023/05/02 00:42:25;;;;;;;31.35;14.77;;;;;;;-144.87;100.00;61487.56;4950061;28;20059;-72
2023/05/02 00:44:52;;;;;;;24.38;13.63;;;;;;;-144.87;100.00;61487.56;4936400;28;20039;-73
2023/05/02 00:47:18;;;;;;;27.50;13.75;;;;;;;-144.87;100.00;61487.56;4970125;28;20058;-72
2023/05/02 00:49:45;;;;;;;32.05;14.68;;;;;;;-144.87;100.00;61487.56;4970121;28;20039;-73
2023/05/02 00:52:11;;;;;;;31.67;13.45;;;;;;;-144.87;100.00;61487.56;4951482;28;20459;-73
2023/05/02 00:54:40;;;;;;;27.55;13.63;;;;;;;-144.87;100.00;61487.56;4966200;28;20047;-73
2023/05/02 00:57:07;;;;;;;29.85;13.63;;;;;;;-144.87;100.00;61487.56;4961085;28;20043;-73
2023/05/02 00:59:35;;;;;;;28.08;12.30;;;;;;;-144.87;100.00;61487.56;4936425;28;20504;-73
2023/05/02 01:02:28;;;;;;;30.15;11.70;;;;;;;-144.87;100.00;61487.56;4933827;28;20256;-74
2023/05/02 01:05:14;;;;;;;22.15;10.88;;;;;;;-144.87;100.00;61487.56;4962926;28;20034;-72
2023/05/02 01:07:59;;;;;;;24.30;9.82;;;;;;;-144.87;100.00;61487.56;4947919;28;20078;-71
2023/05/02 01:11:05;;;;;;;23.35;9.20;;;;;;;-144.87;100.00;61487.56;4947734;28;20506;-73
2023/05/02 01:13:34;;;;;;;21.55;8.25;;;;;;;-144.87;100.00;61487.56;4887560;29;20127;-73
2023/05/02 01:16:02;;;;;;;20.70;8.48;;;;;;;-144.87;100.00;61487.56;4939377;28;20043;-74
2023/05/02 01:18:34;;;;;;;28.15;8.13;;;;;;;-144.87;100.00;61487.56;4944343;28;20117;-72
2023/05/02 01:21:03;;;;;;;26.70;8.20;;;;;;;-144.87;100.00;61487.56;4939301;28;20042;-73
2023/05/02 01:24:06;;;;;;;29.20;6.57;;;;;;;-144.87;100.00;61487.56;4949967;28;20039;-73
2023/05/02 01:26:45;;;;;;;21.13;6.95;;;;;;;-144.87;100.00;61487.56;4948225;28;20035;-73
2023/05/02 01:29:14;;;;;;;24.23;7.32;;;;;;;-144.87;100.00;61487.56;4964215;28;20042;-72
2023/05/02 01:31:42;;;;;;;16.13;6.60;;;;;;;-144.87;100.00;61487.56;4948521;28;20027;-73
2023/05/02 01:34:10;;;;;;;23.25;6.55;;;;;;;-144.87;100.00;61487.56;4916359;28;20122;-71
2023/05/02 01:36:45;;;;;;;24.20;8.07;;;;;;;-144.87;100.00;61487.56;4926127;28;20067;-72
2023/05/02 01:39:17;;;;;;;19.67;6.20;;;;;;;-144.87;100.00;61487.56;4947258;28;20081;-72
2023/05/02 01:41:45;;;;;;;19.73;6.93;;;;;;;-144.87;100.00;61487.56;4946181;28;20128;-72
2023/05/02 01:44:13;;;;;;;20.70;6.70;;;;;;;-144.87;100.00;61487.56;4945110;28;20035;-73
2023/05/02 01:46:41;;;;;;;16.67;6.03;;;;;;;-144.87;100.00;61487.56;4949911;28;20084;-72
2023/05/02 01:49:08;;;;;;;16.60;4.97;;;;;;;-144.87;100.00;61487.56;4930334;28;20495;-71
2023/05/02 01:51:55;;;;;;;25.55;4.90;;;;;;;-144.87;100.00;61487.56;4958379;28;20106;-73
2023/05/02 01:54:23;;;;;;;11.10;3.63;;;;;;;-144.87;100.00;61487.56;4951190;28;20068;-76
2023/05/02 01:56:50;;;;;;;16.58;4.43;;;;;;;-144.87;100.00;61487.56;4947268;28;20034;-73
2023/05/02 01:59:19;;;;;;;18.15;3.72;;;;;;;-144.87;100.00;61487.56;4931858;28;20524;-73
2023/05/02 02:01:45;;;;;;;9.90;2.72;;;;;;;-144.87;100.00;61487.56;4946907;28;22049;-73
2023/05/02 02:04:14;;;;;;;9.80;3.30;;;;;;;-144.87;100.00;61487.56;4967101;28;20043;-72
2023/05/02 02:06:43;;;;;;;9.45;3.22;;;;;;;-144.87;100.00;61487.56;4964035;28;20448;-72
2023/05/02 02:09:09;;;;;;;11.18;2.78;;;;;;;-144.87;100.00;61487.56;4965010;28;20034;-72
2023/05/02 02:12:06;;;;;;;9.35;2.92;;;;;;;-144.87;100.00;61487.56;4962538;28;20090;-72
2023/05/02 02:14:55;;;;;;;8.48;2.72;;;;;;;-144.87;100.00;61487.56;4944534;28;20501;-71
2023/05/02 02:17:29;;;;;;;13.38;3.10;;;;;;;-144.87;100.00;61487.56;4946758;28;20045;-74
2023/05/02 02:19:56;;;;;;;12.80;2.90;;;;;;;-144.87;100.00;61487.56;4935965;28;20114;-73
2023/05/02 02:22:25;;;;;;;9.48;2.70;;;;;;;-144.87;100.00;61487.56;4940950;28;20036;-73
2023/05/02 02:24:52;;;;;;;11.73;2.83;;;;;;;-144.87;100.00;61487.56;4948521;28;20632;-73
2023/05/02 02:27:20;;;;;;;11.35;2.50;;;;;;;-144.87;100.00;61487.56;4932148;28;20808;-73
2023/05/02 02:29:46;;;;;;;12.85;2.80;;;;;;;-144.87;100.00;61487.56;4949649;28;20050;-73
2023/05/02 02:32:12;;;;;;;10.57;2.50;;;;;;;-144.87;100.00;61487.56;4950056;28;20419;-72
2023/05/02 02:34:40;;;;;;;14.65;3.33;;;;;;;-144.87;100.00;61487.56;4971877;28;20507;-73
2023/05/02 02:37:19;;;;;;;11.80;2.95;;;;;;;-144.87;100.00;61487.56;4954839;28;20058;-73
2023/05/02 02:40:09;;;;;;;13.00;3.10;;;;;;;-144.87;100.00;61487.56;4936358;28;20046;-74
2023/05/02 02:42:43;;;;;;;10.88;2.33;;;;;;;-144.87;100.00;61487.56;4965671;28;20061;-72
2023/05/02 02:45:28;;;;;;;10.82;2.50;;;;;;;-144.87;100.00;61487.56;4920054;28;20150;-72
2023/05/02 02:48:20;;;;;;;11.02;3.17;;;;;;;-144.87;100.00;61487.56;4966197;28;20509;-73
2023/05/02 02:50:57;;;;;;;11.48;2.65;;;;;;;-144.87;100.00;61487.56;4967972;28;20035;-72
2023/05/02 02:53:33;;;;;;;12.07;2.65;;;;;;;-144.87;100.00;61487.56;4948341;28;20027;-72
2023/05/02 02:56:15;;;;;;;14.68;2.88;;;;;;;-144.87;100.00;61487.56;4964811;28;20037;-73
2023/05/02 02:59:06;;;;;;;12.20;3.58;;;;;;;-144.87;100.00;61487.56;4946796;28;20060;-73
2023/05/02 03:01:33;;;;;;;11.05;2.70;;;;;;;-144.87;100.00;61487.56;4962485;28;21778;-72
2023/05/02 03:04:01;;;;;;;12.80;2.67;;;;;;;-144.87;100.00;61487.56;4970217;28;20026;-73
2023/05/02 03:06:27;;;;;;;8.57;2.55;;;;;;;-144.87;100.00;61487.56;4950410;28;20039;-75
2023/05/02 03:08:55;;;;;;;16.40;3.30;;;;;;;-144.87;100.00;61487.56;4931525;28;20393;-72
2023/05/02 03:11:28;;;;;;;13.43;2.50;;;;;;;-144.87;100.00;61487.56;4951514;28;20065;-73
2023/05/02 03:13:54;;;;;;;6.80;2.47;;;;;;;-144.87;100.00;61487.56;4951490;28;20043;-73
2023/05/02 03:16:39;;;;;;;15.70;2.90;;;;;;;-144.87;100.00;61487.56;4946905;28;20097;-73
2023/05/02 03:19:09;;;;;;;13.18;3.00;;;;;;;-144.87;100.00;61487.56;4947236;28;20086;-73
2023/05/02 03:21:36;;;;;;;15.45;2.85;;;;;;;-144.87;100.00;61487.56;4967561;28;20034;-72
2023/05/02 03:24:10;;;;;;;11.02;2.97;;;;;;;-144.87;100.00;61487.56;4948280;28;20042;-73
2023/05/02 03:26:36;;;;;;;8.88;2.53;;;;;;;-144.87;100.00;61487.56;4935309;28;20039;-72
2023/05/02 03:29:04;;;;;;;10.60;3.45;;;;;;;-144.87;100.00;61487.56;4934033;28;20135;-72
2023/05/02 03:31:36;;;;;;;9.40;2.53;;;;;;;-144.87;100.00;61487.56;4964448;28;20077;-73
2023/05/02 03:34:03;;;;;;;10.32;3.50;;;;;;;-144.87;100.00;61487.56;4948034;28;20033;-72
2023/05/02 03:36:29;;;;;;;12.90;3.50;;;;;;;-144.87;100.00;61487.56;4932192;28;20396;-70
2023/05/02 03:38:56;;;;;;;10.40;3.20;;;;;;;-144.87;100.00;61487.56;4951195;28;20039;-72
2023/05/02 03:41:26;;;;;;;10.98;2.95;;;;;;;-144.87;100.00;61487.56;4934862;28;20101;-70
2023/05/02 03:44:00;;;;;;;8.68;2.78;;;;;;;-144.87;100.00;61487.56;4933740;28;20574;-72
2023/05/02 03:46:27;;;;;;;11.00;2.40;;;;;;;-144.87;100.00;61487.56;4947539;28;20145;-72
2023/05/02 03:48:56;;;;;;;8.45;2.65;;;;;;;-144.87;100.00;61487.56;4947362;28;20098;-72
2023/05/02 03:51:23;;;;;;;10.88;2.30;;;;;;;-144.87;100.00;61487.56;4927461;28;20117;-73
2023/05/02 03:53:52;;;;;;;7.90;2.20;;;;;;;-144.87;100.00;61487.56;4946044;28;20042;-74
2023/05/02 03:56:18;;;;;;;9.32;2.78;;;;;;;-144.87;100.00;61487.56;4934708;28;20058;-72
2023/05/02 03:58:50;;;;;;;12.50;2.65;;;;;;;-144.87;100.00;61487.56;4934545;28;20575;-73
2023/05/02 04:01:22;;;;;;;9.40;2.70;;;;;;;-144.87;100.00;61487.56;4929536;28;20034;-72
2023/05/02 04:03:50;;;;;;;14.27;3.17;;;;;;;-144.87;100.00;61487.56;4948175;28;20066;-72
2023/05/02 04:06:19;;;;;;;8.93;2.67;;;;;;;-144.87;100.00;61487.56;4935521;28;20134;-73
2023/05/02 04:08:51;;;;;;;9.55;2.80;;;;;;;-144.87;100.00;61487.56;4947151;28;20058;-72
2023/05/02 04:11:17;;;;;;;13.48;2.75;;;;;;;-144.87;100.00;61487.56;4948151;28;20039;-74
2023/05/02 04:13:44;;;;;;;7.32;3.10;;;;;;;-144.87;100.00;61487.56;4920197;28;20035;-73
2023/05/02 04:16:11;;;;;;;10.63;3.00;;;;;;;-144.87;100.00;61487.56;4935105;28;20108;-72
2023/05/02 04:18:38;;;;;;;14.23;2.83;;;;;;;-144.87;100.00;61487.56;4932619;28;20046;-74
2023/05/02 04:21:09;;;;;;;13.90;3.30;;;;;;;-144.87;100.00;61487.56;4933742;28;20084;-72
2023/05/02 04:23:36;;;;;;;16.77;4.03;;;;;;;-144.87;100.00;61487.56;4939426;28;20580;-72
2023/05/02 04:26:04;;;;;;;18.27;3.88;;;;;;;-144.87;100.00;61487.56;4936141;28;20184;-73
2023/05/02 04:28:40;;;;;;;21.35;3.95;;;;;;;-144.87;100.00;61487.56;4951128;28;20035;-72
2023/05/02 04:31:09;;;;;;;13.48;4.22;;;;;;;-144.87;100.00;61487.56;4946807;28;20105;-72
2023/05/02 04:33:35;;;;;;;14.35;3.80;;;;;;;-144.87;100.00;61487.56;4944400;28;20046;-73
2023/05/02 04:36:03;;;;;;;11.88;3.67;;;;;;;-144.87;100.00;61487.56;4967569;28;20038;-72
2023/05/02 04:38:31;;;;;;;20.02;4.60;;;;;;;-144.87;100.00;61487.56;4933297;28;20034;-72
2023/05/02 04:40:58;;;;;;;14.82;4.63;;;;;;;-144.87;100.00;61487.56;4933879;28;20042;-75
2023/05/02 04:43:32;;;;;;;13.25;3.60;;;;;;;-144.87;100.00;61487.56;4931476;28;20039;-72
2023/05/02 04:46:01;;;;;;;16.30;3.72;;;;;;;-144.87;100.00;61487.56;4950209;28;20035;-72
2023/05/02 04:48:32;;;;;;;13.80;4.45;;;;;;;-144.87;100.00;61487.56;4933238;28;20047;-71
2023/05/02 04:50:58;;;;;;;19.20;4.65;;;;;;;-144.87;100.00;61487.56;4947954;28;20078;-73
2023/05/02 04:53:26;;;;;;;20.48;4.50;;;;;;;-144.87;100.00;61487.56;4963270;28;20477;-72
2023/05/02 04:55:53;;;;;;;22.52;4.60;;;;;;;-144.87;100.00;61487.56;4943590;28;20043;-73
2023/05/02 04:58:19;;;;;;;21.27;4.22;;;;;;;-144.87;100.00;61487.56;4947120;28;20034;-73
2023/05/02 05:00:50;;;;;;;17.42;4.50;;;;;;;-144.87;100.00;61487.56;4931812;28;20031;-73
2023/05/02 05:03:16;;;;;;;11.68;3.80;;;;;;;-144.87;100.00;61487.56;4931052;28;20317;-73
2023/05/02 05:05:42;;;;;;;15.57;4.22;;;;;;;-144.87;100.00;61487.56;4942879;28;20042;-73
2023/05/02 05:08:13;;;;;;;19.00;5.47;;;;;;;-144.87;100.00;61487.56;4918320;28;20041;-73
2023/05/02 05:10:40;;;;;;;26.92;5.18;;;;;;;-144.87;100.00;61487.56;4967701;28;20573;-72
2023/05/02 05:13:07;;;;;;;25.20;5.72;;;;;;;-144.87;100.00;61487.56;4934871;28;20043;-72
2023/05/02 05:15:34;;;;;;;24.00;5.60;;;;;;;-144.87;100.00;61487.56;4949444;28;20035;-72
2023/05/02 05:18:01;;;;;;;22.95;5.28;;;;;;;-144.87;100.00;61487.56;4914528;28;20470;-71
2023/05/02 05:20:28;;;;;;;14.82;3.78;;;;;;;-144.87;100.00;61487.56;4930155;28;20113;-72
2023/05/02 05:22:58;;;;;;;17.38;4.47;;;;;;;-144.87;100.00;61487.56;4932113;28;20070;-72
2023/05/02 05:25:26;;;;;;;22.63;6.03;;;;;;;-144.87;100.00;61487.56;4930956;28;20034;-73
2023/05/02 05:27:56;;;;;;;21.65;4.50;;;;;;;-144.87;100.00;61487.56;4928283;28;20037;-72
2023/05/02 05:30:23;;;;;;;20.48;4.85;;;;;;;-144.87;100.00;61487.56;4948182;28;20027;-73
2023/05/02 05:32:50;;;;;;;14.20;3.92;;;;;;;-144.87;100.00;61487.56;4946470;28;20149;-73
2023/05/02 05:35:16;;;;;;;16.48;4.75;;;;;;;-144.87;100.00;61487.56;4933698;28;20031;-74
2023/05/02 05:37:43;;;;;;;23.60;3.88;;;;;;;-144.87;100.00;61487.56;4917758;28;20039;-72
2023/05/02 05:40:12;;;;;;;17.05;3.67;;;;;;;-144.87;100.00;61487.56;4949885;28;20135;-72
2023/05/02 05:42:41;;;;;;;12.98;3.55;;;;;;;-144.87;100.00;61487.56;4929357;28;20078;-73
2023/05/02 05:45:15;;;;;;;12.90;3.13;;;;;;;-144.87;100.00;61487.56;4930508;28;20493;-72
2023/05/02 05:47:42;;;;;;;19.38;3.65;;;;;;;-144.87;100.00;61487.56;4947780;28;20033;-73
2023/05/02 05:50:09;;;;;;;17.83;4.32;;;;;;;-144.87;100.00;61487.56;4926627;28;20035;-73
2023/05/02 05:52:36;;;;;;;15.80;3.50;;;;;;;-144.87;100.00;61487.56;4929661;28;20070;-73
2023/05/02 05:55:03;;;;;;;19.48;3.67;;;;;;;-144.87;100.00;61487.56;4947539;28;20053;-72
2023/05/02 05:57:30;;;;;;;14.45;3.95;;;;;;;-144.87;100.00;61487.56;4962403;28;20047;-72
2023/05/02 05:59:57;;;;;;;13.27;3.05;;;;;;;-144.87;100.00;61487.56;4945771;28;20409;-73
2023/05/02 06:02:23;;;;;;;16.60;3.80;;;;;;;-144.87;100.00;61487.56;4934672;28;20047;-72
2023/05/02 06:04:49;;;;;;;12.07;3.05;;;;;;;-144.87;100.00;61487.56;4937912;28;20039;-73
2023/05/02 06:07:19;;;;;;;11.50;4.63;;;;;;;-144.87;100.00;61487.56;4934241;28;20408;-74
2023/05/02 06:09:45;;;;;;;11.95;2.88;;;;;;;-144.87;100.00;61487.56;4967087;28;20038;-73
2023/05/02 06:12:15;;;;;;;16.48;3.42;;;;;;;-144.87;100.00;61487.56;4931109;28;20062;-73
2023/05/02 06:14:42;;;;;;;13.10;2.88;;;;;;;-144.87;100.00;61487.56;4948074;28;20074;-73
2023/05/02 06:17:08;;;;;;;12.43;2.72;;;;;;;-144.87;100.00;61487.56;4930522;28;20034;-73
2023/05/02 06:19:35;;;;;;;7.70;2.60;;;;;;;-144.87;100.00;61487.56;4934106;28;20039;-73
2023/05/02 06:22:01;;;;;;;34.92;4.35;;;;;;;-144.87;100.00;61487.56;4966442;28;20046;-72
2023/05/02 06:24:27;;;;;;;10.00;2.35;;;;;;;-144.87;100.00;61487.56;4950533;28;20496;-73
2023/05/02 06:26:53;;;;;;;8.18;2.42;;;;;;;-144.87;100.00;61487.56;4969478;28;20034;-73
2023/05/02 06:29:20;;;;;;;7.00;2.53;;;;;;;-144.87;100.00;61487.56;4968803;28;20050;-73
2023/05/02 06:31:46;;;;;;;14.35;2.88;;;;;;;-144.87;100.00;61487.56;4952816;28;20039;-73
2023/05/02 06:34:12;;;;;;;9.40;2.30;;;;;;;-144.87;100.00;61487.56;4960647;28;20159;-73
2023/05/02 06:36:39;;;;;;;14.43;3.83;;;;;;;-144.87;100.00;61487.56;4946998;28;20370;-72
2023/05/02 06:39:05;;;;;;;13.85;2.85;;;;;;;-144.87;100.00;61487.56;4965159;28;20535;-73
2023/05/02 06:41:32;;;;;;;11.45;2.65;;;;;;;-144.87;100.00;61487.56;4947360;28;21205;-74
2023/05/02 06:43:58;;;;;;;7.20;2.53;;;;;;;-144.87;100.00;61487.56;4957183;28;20084;-72
2023/05/02 06:46:29;;;;;;;11.38;2.80;;;;;;;-144.87;100.00;61487.56;4946041;28;20046;-73
2023/05/02 06:48:55;;;;;;;;;;;;;;;-144.87;100.00;61487.56;4965287;28;20058;-72
2023/05/02 06:51:22;;;;;;;13.15;3.38;;;;;;;-144.87;100.00;61487.56;4963216;28;19922;-73
2023/05/02 06:53:48;;;;;;;13.48;3.05;;;;;;;-144.87;100.00;61487.56;4951328;28;20034;-72
2023/05/02 06:56:14;;;;;;;15.82;3.28;;;;;;;-144.87;100.00;61487.56;4942624;28;20046;-72
2023/05/02 06:58:41;;;;;;;17.25;3.15;;;;;;;-144.87;100.00;61487.56;4947708;28;20046;-73
2023/05/02 07:01:07;;;;;;;12.23;3.28;;;;;;;-144.87;100.00;61487.56;4948670;28;20062;-72
2023/05/02 07:03:33;;;;;;;14.30;4.05;;;;;;;-144.87;100.00;61487.56;4943001;28;20085;-72
2023/05/02 07:06:00;;;;;;;15.82;3.55;;;;;;;-144.87;100.00;61487.56;4946715;28;20159;-73
2023/05/02 07:08:26;;;;;;;10.75;4.10;;;;;;;-144.87;100.00;61487.56;4966848;28;20411;-74
2023/05/02 07:10:52;;;;;;;13.43;3.58;;;;;;;-144.87;100.00;61487.56;4968540;28;20047;-73
2023/05/02 07:13:18;;;;;;;15.15;3.75;;;;;;;-144.87;100.00;61487.56;4946937;28;20034;-72
2023/05/02 07:15:45;;;;;;;19.58;3.67;;;;;;;-144.87;100.00;61487.56;4952657;28;20051;-73
2023/05/02 07:18:11;;;;;;;17.02;3.28;;;;;;;-144.87;100.00;61487.56;4955720;28;20471;-72
2023/05/02 07:20:39;;;;;;;13.15;3.75;;;;;;;-144.87;100.00;61487.56;4952996;28;20631;-73
2023/05/02 07:23:05;;;;;;;13.07;3.28;;;;;;;-144.87;100.00;61487.56;4967457;28;20038;-72
2023/05/02 07:25:31;;;;;;;11.25;2.97;;;;;;;-144.87;100.00;61487.56;4935720;28;20467;-73
2023/05/02 07:27:58;;;;;;;10.75;2.72;;;;;;;-144.87;100.00;61487.56;4949928;28;20062;-72
2023/05/02 07:30:24;;;;;;;9.82;2.00;;;;;;;-144.87;100.00;61487.56;4964034;28;21368;-72
2023/05/02 07:32:50;;;;;;;12.60;2.53;;;;;;;-144.87;100.00;61487.56;4946895;28;20062;-72
2023/05/02 07:35:17;;;;;;;6.50;1.75;;;;;;;-144.87;100.00;61487.56;4928266;28;20042;-74
2023/05/02 07:37:43;;;;;;;9.02;1.98;;;;;;;-144.87;100.00;61487.56;4961857;28;20050;-73
2023/05/02 07:40:10;;;;;;;5.85;1.88;;;;;;;-144.87;100.00;61487.56;4947350;28;20027;-72
2023/05/02 07:42:36;;;;;;;8.55;1.90;;;;;;;-144.87;100.00;61487.56;4965916;28;20416;-72
2023/05/02 07:45:03;;;;;;;12.25;1.95;;;;;;;-144.87;100.00;61487.56;4971637;28;20069;-72
2023/05/02 07:47:29;;;;;;;7.50;2.60;;;;;;;-144.87;100.00;61487.56;4953676;28;20027;-72
2023/05/02 07:49:55;;;;;;;13.07;2.42;;;;;;;-144.87;100.00;61487.56;4963237;28;20050;-71
2023/05/02 07:52:22;;;;;;;12.77;2.63;;;;;;;-144.87;100.00;61487.56;4933232;28;20043;-77
2023/05/02 07:54:48;;;;;;;6.93;2.20;;;;;;;-144.87;100.00;61487.56;4930980;28;20065;-72
2023/05/02 07:57:15;;;;;;;5.28;2.00;;;;;;;-144.87;100.00;61487.56;4962077;28;20085;-73
2023/05/02 07:59:41;;;;;;;7.93;2.00;;;;;;;-144.87;100.00;61487.56;4949494;28;20114;-73
2023/05/02 08:02:08;;;;;;;10.77;3.15;;;;;;;-144.87;100.00;61487.56;4928966;28;20094;-72
2023/05/02 08:04:34;;;;;;;8.10;2.05;;;;;;;-144.87;100.00;61487.56;4947002;28;20042;-73
2023/05/02 08:07:00;;;;;;;10.43;2.13;;;;;;;-144.87;100.00;61487.56;4966898;28;20037;-72
2023/05/02 08:09:27;;;;;;;12.05;3.05;;;;;;;-144.87;100.00;61487.56;4947698;28;20166;-72
2023/05/02 08:11:53;;;;;;;9.13;1.70;;;;;;;-144.87;100.00;61487.56;4962350;28;20039;-73
2023/05/02 08:14:19;;;;;;;6.95;2.20;;;;;;;-144.87;100.00;61487.56;4968176;28;20034;-72
2023/05/02 08:16:46;;;;;;;11.40;2.42;;;;;;;-144.87;100.00;61487.56;4948028;28;20137;-73
2023/05/02 08:19:12;;;;;;;12.43;2.30;;;;;;;-144.87;100.00;61487.56;4967486;28;20043;-73
2023/05/02 08:21:38;;;;;;;9.45;1.83;;;;;;;-144.87;100.00;61487.56;4967636;28;20062;-72
2023/05/02 08:24:05;;;;;;;9.15;2.08;;;;;;;-144.87;100.00;61487.56;4924744;28;20175;-72
2023/05/02 08:26:31;;;;;;;8.02;1.70;;;;;;;-144.87;100.00;61487.56;4950627;28;20070;-72
2023/05/02 08:28:57;;;;;;;10.82;2.40;;;;;;;-144.87;100.00;61487.56;4949708;28;20030;-72
2023/05/02 08:31:23;;;;;;;7.63;2.17;;;;;;;-144.87;100.00;61487.56;4957342;28;20035;-73
2023/05/02 08:33:50;;;;;;;9.45;2.75;;;;;;;-144.87;100.00;61487.56;4948500;28;20085;-72
2023/05/02 08:36:17;;;;;;;11.80;1.95;;;;;;;-144.87;100.00;61487.56;4950408;28;20051;-71
2023/05/02 08:38:44;;;;;;;5.95;2.28;;;;;;;-144.87;100.00;61487.56;4940021;28;20090;-73
2023/05/02 08:41:12;;;;;;;12.30;2.78;;;;;;;-144.87;100.00;61487.56;4944506;28;20404;-72
2023/05/02 08:43:39;;;;;;;6.50;1.98;;;;;;;-144.87;100.00;61487.56;4947746;28;20154;-72
2023/05/02 08:46:07;;;;;;;7.68;2.22;;;;;;;-144.87;100.00;61487.56;4948376;28;20069;-73
2023/05/02 08:48:36;;;;;;;6.53;2.00;;;;;;;-144.87;100.00;61487.56;4897356;28;20077;-72
2023/05/02 08:51:03;;;;;;;17.92;3.42;;;;;;;-144.87;100.00;61487.56;4965001;28;20122;-73
2023/05/02 08:53:35;;;;;;;10.23;2.15;;;;;;;-144.87;100.00;61487.56;4946689;28;20030;-73
2023/05/02 08:56:01;;;;;;;15.10;2.50;;;;;;;-144.87;100.00;61487.56;4961380;28;20517;-71
2023/05/02 08:58:29;;;;;;;7.95;2.03;;;;;;;-144.87;100.00;61487.56;4965849;28;20122;-72
2023/05/02 09:00:59;;;;;;;14.30;2.20;;;;;;;-144.87;100.00;61487.56;4944702;28;20047;-72
2023/05/02 09:03:35;;;;;;;8.20;2.20;;;;;;;-144.87;100.00;61487.56;4965449;28;20029;-72
2023/05/02 09:06:13;;;;;;;8.27;2.30;;;;;;;-144.87;100.00;61487.56;4959460;28;20035;-73
2023/05/02 09:08:40;;;;;;;7.47;2.03;;;;;;;-144.87;100.00;61487.56;4973267;28;20475;-73
2023/05/02 09:11:08;;;;;;;11.32;2.30;;;;;;;-144.87;100.00;61487.56;4969467;28;20035;-73
2023/05/02 09:13:35;;;;;;;10.07;2.60;;;;;;;-144.87;100.00;61487.56;4950809;28;20038;-72
2023/05/02 09:16:06;;;;;;;9.13;2.35;;;;;;;-144.87;100.00;61487.56;4959113;28;20034;-71
2023/05/02 09:18:42;;;;;;;10.48;2.53;;;;;;;-144.87;100.00;61487.56;4959705;28;20042;-71
2023/05/02 09:21:17;;;;;;;13.00;2.28;;;;;;;-144.87;100.00;61487.56;4952655;28;20035;-72
2023/05/02 09:23:48;;;;;;;10.65;2.13;;;;;;;-144.87;100.00;61487.56;4949059;28;20046;-72
2023/05/02 09:26:21;;;;;;;7.95;2.00;;;;;;;-144.87;100.00;61487.56;4948246;28;20065;-72
2023/05/02 09:28:50;;;;;;;13.23;2.22;;;;;;;-144.87;100.00;61487.56;4967031;28;20149;-73
2023/05/02 09:31:29;;;;;;;7.20;2.05;;;;;;;-144.87;100.00;61487.56;4953493;28;20042;-72
2023/05/02 09:33:56;;;;;;;8.60;1.83;;;;;;;-144.87;100.00;61487.56;4946705;28;20184;-72
2023/05/02 09:36:22;;;;;;;10.43;2.42;;;;;;;-144.87;100.00;61487.56;4949515;28;20058;-73
2023/05/02 09:38:50;;;;;;;8.82;2.38;;;;;;;-144.87;100.00;61487.56;4965845;28;20486;-72
2023/05/02 09:41:20;;;;;;;12.77;1.95;;;;;;;-144.87;100.00;61487.56;4972625;28;20062;-73
2023/05/02 09:43:55;;;;;;;;;;;;;;;-144.87;100.00;61487.56;4949272;28;20056;-73
2023/05/02 09:46:21;;;;;;;9.52;1.85;;;;;;;-144.87;100.00;61487.56;4953581;28;19946;-72
2023/05/02 09:48:57;;;;;;;7.05;2.00;;;;;;;-144.87;100.00;61487.56;4951935;28;20042;-73
2023/05/02 09:51:26;;;;;;;5.75;1.75;;;;;;;-144.87;100.00;61487.56;4948059;28;20030;-73
2023/05/02 09:53:53;;;;;;;4.45;1.75;;;;;;;-144.87;100.00;61487.56;4948980;28;20101;-72
2023/05/02 09:56:20;;;;;;;7.15;1.80;;;;;;;-144.87;100.00;61487.56;4952792;28;20035;-71
2023/05/02 09:58:46;;;;;;;6.85;2.17;;;;;;;-144.87;100.00;61487.56;4950182;28;20042;-71
2023/05/02 10:01:16;;;;;;;14.32;2.28;;;;;;;-144.87;100.00;61487.56;4968021;28;20031;-71
2023/05/02 10:03:46;;;;;;;5.38;1.88;;;;;;;-144.87;100.00;61487.56;4967257;28;20169;-71
2023/05/02 10:06:13;;;;;;;8.07;1.75;;;;;;;-144.87;100.00;61487.56;4950553;28;20038;-72
2023/05/02 10:08:44;;;;;;;9.73;2.67;;;;;;;-144.87;100.00;61487.56;4952499;28;20249;-73
2023/05/02 10:11:12;;;;;;;8.27;2.28;;;;;;;-144.87;100.00;61487.56;4953862;28;20066;-74
2023/05/02 10:13:41;;;;;;;8.95;2.15;;;;;;;-144.87;100.00;61487.56;4954227;28;20174;-72
2023/05/02 10:16:08;;;;;;;9.35;2.88;;;;;;;-144.87;100.00;61487.56;4953177;28;20034;-72
2023/05/02 10:18:50;;;;;;;7.65;2.08;;;;;;;-144.87;100.00;61487.56;4937912;28;20104;-72
2023/05/02 10:21:24;;;;;;;10.63;2.20;;;;;;;-144.87;100.00;61487.56;4951375;28;20035;-71
2023/05/02 10:23:52;;;;;;;11.13;2.70;;;;;;;-144.87;100.00;61487.56;4952950;28;20038;-72
2023/05/02 10:26:21;;;;;;;12.93;2.78;;;;;;;-144.87;100.00;61487.56;4940890;28;20050;-71
2023/05/02 10:28:48;;;;;;;9.55;2.75;;;;;;;-144.87;100.00;61487.56;4952052;28;20404;-72
2023/05/02 10:31:16;;;;;;;6.93;2.05;;;;;;;-144.87;100.00;61487.56;4952075;28;20043;-72
2023/05/02 10:33:43;;;;;;;9.27;1.90;;;;;;;-144.87;100.00;61487.56;4969780;28;20054;-72
2023/05/02 10:36:13;;;;;;;9.82;2.50;;;;;;;-144.87;100.00;61487.56;4948894;28;20058;-72
2023/05/02 10:38:40;;;;;;;7.43;2.55;;;;;;;-144.87;100.00;61487.56;4952231;28;20043;-72
2023/05/02 10:41:15;;;;;;;8.52;2.38;;;;;;;-144.87;100.00;61487.56;4952431;28;20058;-72
2023/05/02 10:43:46;;;;;;;8.55;2.15;;;;;;;-144.87;100.00;61487.56;4950748;28;20069;-75
2023/05/02 10:46:32;;;;;;;6.82;2.50;;;;;;;-144.87;100.00;61487.56;4971638;28;20062;-74
2023/05/02 10:49:04;;;;;;;9.40;2.72;;;;;;;-144.87;100.00;61487.56;4955174;28;20496;-71
2023/05/02 10:51:31;;;;;;;6.78;2.28;;;;;;;-144.87;100.00;61487.56;4954130;28;20039;-72
2023/05/02 10:54:15;;;;;;;8.15;2.53;;;;;;;-144.87;100.00;61487.56;4956756;28;20074;-72
2023/05/02 10:57:05;;;;;;;22.77;3.38;;;;;;;-144.87;100.00;61487.56;4950369;28;20042;-73
2023/05/02 10:59:39;;;;;;;9.63;3.28;;;;;;;-144.87;100.00;61487.56;4972187;28;20054;-72
2023/05/02 11:02:29;;;;;;;10.95;2.80;;;;;;;-144.87;100.00;61487.56;4953742;28;20061;-72
2023/05/02 11:05:08;;;;;;;8.38;2.22;;;;;;;-144.87;100.00;61487.56;4955699;28;20889;-73
2023/05/02 11:07:36;;;;;;;8.48;2.53;;;;;;;-144.87;100.00;61487.56;4972339;28;20034;-72
2023/05/02 11:10:19;;;;;;;12.15;3.28;;;;;;;-144.87;100.00;61487.56;4926691;29;20047;-72
2023/05/02 11:12:53;;;;;;;7.18;2.97;;;;;;;-144.87;100.00;61487.56;4955644;28;20038;-71
2023/05/02 11:15:28;;;;;;;10.00;2.67;;;;;;;-144.87;100.00;61487.56;4955343;28;20105;-73